Terminal Aerodrome Forecast
Issued by NWS

Home | Current Version | Previous Version | Text Only | Print | Product List | Glossary On
Versions: 1 2 3 4 5 6 7 8 9 10 11 12 13 14 15 16 17 18 19 20 21 22 23 24 25 26 27 28 29
000
FTUS41 KBOX 301129
TAFBED
TAF
KBED 301129Z 3012/3112 VRB03KT P6SM SCT250
     FM310000 15004KT P6SM BKN120
     FM310300 16004KT P6SM VCSH BKN080
     FM310600 00000KT 6SM BR VCSH OVC090
     FM310800 00000KT P6SM VCSH OVC060
     FM311100 VRB03KT 5SM BR VCSH OVC050=

USA.gov is the U.S. government's official web portal to all federal, state and local government web resources and services.